createdAt,value
2018-05-15T00:00:28.173Z,53.23
2018-05-15T00:01:28.206Z,54.00
2018-05-15T00:02:28.165Z,53.91
2018-05-15T00:03:28.175Z,53.43
2018-05-15T00:04:28.196Z,53.81
2018-05-15T00:05:28.173Z,53.91
2018-05-15T00:06:28.180Z,54.17
2018-05-15T00:07:28.190Z,53.72
2018-05-15T00:08:28.170Z,54.20
2018-05-15T00:09:28.171Z,53.78
2018-05-15T00:10:28.197Z,54.08
2018-05-15T00:11:28.455Z,53.98
2018-05-15T00:12:28.187Z,54.20
2018-05-15T00:13:28.232Z,53.78
2018-05-15T00:14:28.234Z,54.36
2018-05-15T00:15:28.197Z,54.56
2018-05-15T00:16:28.174Z,54.56
2018-05-15T00:17:28.178Z,54.36
2018-05-15T00:18:28.151Z,54.85
2018-05-15T00:19:28.164Z,54.85
2018-05-15T00:20:28.158Z,54.36
2018-05-15T00:21:28.176Z,54.94
2018-05-15T00:22:28.171Z,55.23
2018-05-15T00:23:28.161Z,54.65
2018-05-15T00:24:28.166Z,54.94
2018-05-15T00:25:28.171Z,53.98
2018-05-15T00:26:28.171Z,55.01
2018-05-15T00:27:28.197Z,54.56
2018-05-15T00:28:28.171Z,54.82
2018-05-15T00:29:28.178Z,54.27
2018-05-15T00:30:28.171Z,54.46
2018-05-15T00:31:28.468Z,54.91
2018-05-15T00:32:28.180Z,54.82
2018-05-15T00:33:28.234Z,54.85
2018-05-15T00:34:28.177Z,54.65
2018-05-15T00:35:28.204Z,54.85
2018-05-15T00:36:28.185Z,54.27
2018-05-15T00:37:28.182Z,54.46
2018-05-15T00:38:28.199Z,54.53
2018-05-15T00:39:34.251Z,54.63
2018-05-15T00:40:27.829Z,54.43
2018-05-15T00:41:28.240Z,54.05
2018-05-15T00:42:28.480Z,54.14
2018-05-15T00:43:28.191Z,54.27
2018-05-15T00:44:28.178Z,54.14
2018-05-15T00:45:28.180Z,54.24
2018-05-15T00:46:28.180Z,54.24
2018-05-15T00:47:28.198Z,54.43
2018-05-15T00:48:28.173Z,54.53
2018-05-15T00:49:28.169Z,54.53
2018-05-15T00:50:28.173Z,54.63
2018-05-15T00:51:28.172Z,55.01
2018-05-15T00:52:27.729Z,53.66
2018-05-15T00:53:28.204Z,53.78
2018-05-15T00:54:27.775Z,54.43
2018-05-15T00:55:28.458Z,54.24
2018-05-15T00:56:28.188Z,53.86
2018-05-15T00:57:28.208Z,53.86
2018-05-15T00:58:28.193Z,54.05
2018-05-15T00:59:28.189Z,54.14
2018-05-15T01:00:28.234Z,54.53
2018-05-15T01:01:28.200Z,54.53
2018-05-15T01:02:28.477Z,54.24
2018-05-15T01:03:28.236Z,54.53
2018-05-15T01:04:28.208Z,54.82
2018-05-15T01:05:28.184Z,54.63
2018-05-15T01:06:28.193Z,53.64
2018-05-15T01:07:28.193Z,53.83
2018-05-15T01:08:28.172Z,54.22
2018-05-15T01:09:28.215Z,53.54
2018-05-15T01:10:28.226Z,53.19
2018-05-15T01:11:28.221Z,53.38
2018-05-15T01:12:30.056Z,53.28
2018-05-15T01:13:28.246Z,53.09
2018-05-15T01:14:28.181Z,53.06
2018-05-15T01:15:28.230Z,52.70
2018-05-15T01:16:28.178Z,52.87
2018-05-15T01:17:27.878Z,52.77
2018-05-15T01:18:28.256Z,53.16
2018-05-15T01:19:28.229Z,53.16
2018-05-15T01:20:28.198Z,52.00
2018-05-15T01:21:28.171Z,52.42
2018-05-15T01:22:28.484Z,52.29
2018-05-15T01:23:28.553Z,52.20
2018-05-15T01:24:28.480Z,51.53
2018-05-15T01:25:28.191Z,51.91
2018-05-15T01:26:28.172Z,51.81
2018-05-15T01:27:28.193Z,51.91
2018-05-15T01:28:29.642Z,51.43
2018-05-15T01:29:28.197Z,51.72
2018-05-15T01:30:28.214Z,52.00
2018-05-15T01:31:28.182Z,51.33
2018-05-15T01:32:28.193Z,51.72
2018-05-15T01:33:28.212Z,51.23
2018-05-15T01:34:28.287Z,51.81
2018-05-15T01:35:28.213Z,51.62
2018-05-15T01:36:28.199Z,51.62
2018-05-15T01:37:28.236Z,51.69
2018-05-15T01:38:28.258Z,51.91
2018-05-15T01:39:28.291Z,52.00
2018-05-15T01:40:28.492Z,51.50
2018-05-15T01:41:28.210Z,52.00
2018-05-15T01:42:28.448Z,51.40
2018-05-15T01:43:28.374Z,51.21
2018-05-15T01:44:28.340Z,51.81
2018-05-15T01:45:28.208Z,51.72
2018-05-15T01:46:28.186Z,52.10
2018-05-15T01:47:28.199Z,51.43
2018-05-15T01:48:28.216Z,51.21
2018-05-15T01:49:28.209Z,51.69
2018-05-15T01:50:28.184Z,52.26
2018-05-15T01:51:28.238Z,51.79
2018-05-15T01:52:30.039Z,51.88
2018-05-15T01:53:28.219Z,51.88
2018-05-15T01:54:28.230Z,52.17
2018-05-15T01:55:28.246Z,52.46
2018-05-15T01:56:28.222Z,52.17
2018-05-15T01:57:27.955Z,52.36
2018-05-15T01:58:28.258Z,52.84
2018-05-15T01:59:28.278Z,52.46
2018-05-15T02:00:28.269Z,52.39
2018-05-15T02:01:28.252Z,52.94
2018-05-15T02:02:28.250Z,52.75
2018-05-15T02:03:28.257Z,52.84
2018-05-15T02:04:28.257Z,53.06
2018-05-15T02:05:28.293Z,52.17
2018-05-15T02:06:28.296Z,52.26
2018-05-15T02:07:28.327Z,53.03
2018-05-15T02:08:28.251Z,52.84
2018-05-15T02:09:28.477Z,53.03
2018-05-15T02:10:28.330Z,53.03
2018-05-15T02:11:28.480Z,52.84
2018-05-15T02:12:28.189Z,52.65
2018-05-15T02:13:28.236Z,52.17
2018-05-15T02:14:28.186Z,52.08
2018-05-15T02:15:28.175Z,52.08
2018-05-15T02:16:28.247Z,52.94
2018-05-15T02:17:28.466Z,53.32
2018-05-15T02:18:28.009Z,53.13
2018-05-15T02:19:28.183Z,53.03
2018-05-15T02:20:28.495Z,53.23
2018-05-15T02:21:28.465Z,53.13
2018-05-15T02:22:28.329Z,53.03
2018-05-15T02:23:28.466Z,53.01
2018-05-15T02:24:28.332Z,52.91
2018-05-15T02:25:28.333Z,53.11
2018-05-15T02:26:28.021Z,53.11
2018-05-15T02:27:28.473Z,53.01
2018-05-15T02:28:28.338Z,53.01
2018-05-15T02:29:28.335Z,52.62
2018-05-15T02:30:28.436Z,52.53
2018-05-15T02:31:28.357Z,52.62
2018-05-15T02:32:28.352Z,53.01
2018-05-15T02:33:28.315Z,52.91
2018-05-15T02:34:28.270Z,53.11
2018-05-15T02:35:28.265Z,53.30
2018-05-15T02:36:28.266Z,53.58
2018-05-15T02:37:28.292Z,53.30
2018-05-15T02:38:28.295Z,53.30
2018-05-15T02:39:28.315Z,53.20
2018-05-15T02:40:28.476Z,53.11
2018-05-15T02:41:28.338Z,53.68
2018-05-15T02:42:28.331Z,53.49
2018-05-15T02:43:28.326Z,53.49
2018-05-15T02:44:28.357Z,53.58
2018-05-15T02:45:28.351Z,53.39
2018-05-15T02:46:28.295Z,53.68
2018-05-15T02:47:28.334Z,54.45
2018-05-15T02:48:28.347Z,53.78
2018-05-15T02:49:28.342Z,54.25
2018-05-15T02:50:28.391Z,54.64
2018-05-15T02:51:28.405Z,53.97
2018-05-15T02:52:28.375Z,54.13
2018-05-15T02:53:28.411Z,53.78
2018-05-15T02:54:28.480Z,54.55
2018-05-15T02:55:28.347Z,54.55
2018-05-15T02:56:28.442Z,54.64
2018-05-15T02:57:28.288Z,54.74
2018-05-15T02:58:28.297Z,54.64
2018-05-15T02:59:28.275Z,54.71
2018-05-15T03:00:28.309Z,54.74
2018-05-15T03:01:28.271Z,55.12
2018-05-15T03:02:28.403Z,55.12
2018-05-15T03:03:28.342Z,55.32
2018-05-15T03:04:28.356Z,55.38
2018-05-15T03:05:28.449Z,55.02
2018-05-15T03:06:28.446Z,55.10
2018-05-15T03:07:28.443Z,55.10
2018-05-15T03:08:28.495Z,55.47
2018-05-15T03:09:27.705Z,55.38
2018-05-15T03:10:28.438Z,55.02
2018-05-15T03:11:28.411Z,55.19
2018-05-15T03:12:30.262Z,56.05
2018-05-15T03:13:28.504Z,55.38
2018-05-15T03:14:28.497Z,55.29
2018-05-15T03:15:28.487Z,55.19
2018-05-15T03:16:28.481Z,55.47
2018-05-15T03:17:28.416Z,55.77
2018-05-15T03:18:28.501Z,56.89
2018-05-15T03:19:28.478Z,56.60
2018-05-15T03:20:28.513Z,57.21
2018-05-15T03:21:28.499Z,57.18
2018-05-15T03:22:28.500Z,57.65
2018-05-15T03:23:34.244Z,56.73
2018-05-15T03:24:28.376Z,56.82
2018-05-15T03:25:28.410Z,56.53
2018-05-15T03:26:28.486Z,57.11
2018-05-15T03:27:28.425Z,57.37
2018-05-15T03:28:28.473Z,57.59
2018-05-15T03:29:28.760Z,57.21
2018-05-15T03:30:28.749Z,57.11
2018-05-15T03:31:28.742Z,56.63
2018-05-15T03:32:28.770Z,56.82
2018-05-15T03:33:28.758Z,56.82
2018-05-15T03:34:30.755Z,57.01
2018-05-15T03:35:28.757Z,57.30
2018-05-15T03:36:28.772Z,56.92
2018-05-15T03:37:28.769Z,57.30
2018-05-15T03:38:28.994Z,57.30
2018-05-15T03:39:28.735Z,57.30
2018-05-15T03:40:28.746Z,57.59
2018-05-15T03:41:28.796Z,57.78
2018-05-15T03:42:28.755Z,58.17
2018-05-15T03:43:28.793Z,57.65
2018-05-15T03:44:28.801Z,57.85
2018-05-15T03:45:28.737Z,58.23
2018-05-15T03:46:28.788Z,58.42
2018-05-15T03:47:28.791Z,57.95
2018-05-15T03:48:28.801Z,59.29
2018-05-15T03:49:28.804Z,58.64
2018-05-15T03:50:28.826Z,58.33
2018-05-15T03:51:28.814Z,58.23
2018-05-15T03:52:28.817Z,58.81
2018-05-15T03:53:28.769Z,59.09
2018-05-15T03:54:28.806Z,58.71
2018-05-15T03:55:28.769Z,58.52
2018-05-15T03:56:28.762Z,58.23
2018-05-15T03:57:28.763Z,58.62
2018-05-15T03:58:28.786Z,59.48
2018-05-15T03:59:28.800Z,59.19
2018-05-15T04:00:28.814Z,59.00
2018-05-15T04:01:28.239Z,58.81
2018-05-15T04:02:28.804Z,59.48
2018-05-15T04:03:28.787Z,59.29
2018-05-15T04:04:28.802Z,59.09
2018-05-15T04:05:28.765Z,59.09
2018-05-15T04:06:28.750Z,58.91
2018-05-15T04:07:28.739Z,59.00
2018-05-15T04:08:28.732Z,59.38
2018-05-15T04:09:28.750Z,59.48
2018-05-15T04:10:28.735Z,59.48
2018-05-15T04:11:28.743Z,59.58
2018-05-15T04:12:28.736Z,58.91
2018-05-15T04:13:28.800Z,59.86
2018-05-15T04:14:28.791Z,59.09
2018-05-15T04:15:28.792Z,59.00
2018-05-15T04:16:28.749Z,59.19
2018-05-15T04:17:28.744Z,59.83
2018-05-15T04:18:28.176Z,59.77
2018-05-15T04:19:28.790Z,59.09
2018-05-15T04:20:28.769Z,58.71
2018-05-15T04:21:28.793Z,60.05
2018-05-15T04:22:28.757Z,59.67
2018-05-15T04:23:28.815Z,59.29
2018-05-15T04:24:28.766Z,59.67
2018-05-15T04:25:29.045Z,59.19
2018-05-15T04:26:28.787Z,59.48
2018-05-15T04:27:28.816Z,59.86
2018-05-15T04:28:28.871Z,59.67
2018-05-15T04:29:28.752Z,59.77
2018-05-15T04:30:28.801Z,58.81
2018-05-15T04:31:28.822Z,59.38
2018-05-15T04:32:28.804Z,59.45
2018-05-15T04:33:29.038Z,59.45
2018-05-15T04:34:28.735Z,59.45
2018-05-15T04:35:28.741Z,59.58
2018-05-15T04:36:28.736Z,59.64
2018-05-15T04:37:28.744Z,59.67
2018-05-15T04:38:28.768Z,60.22
2018-05-15T04:39:28.750Z,60.05
2018-05-15T04:40:28.742Z,59.58
2018-05-15T04:41:28.745Z,59.58
2018-05-15T04:42:28.791Z,60.03
2018-05-15T04:43:28.986Z,60.31
2018-05-15T04:44:28.744Z,59.64
2018-05-15T04:45:28.754Z,60.22
2018-05-15T04:46:28.808Z,59.55
2018-05-15T04:47:28.757Z,60.05
2018-05-15T04:48:28.750Z,59.96
2018-05-15T04:49:30.823Z,59.58
2018-05-15T04:50:28.811Z,59.29
2018-05-15T04:51:29.038Z,59.58
2018-05-15T04:52:28.805Z,59.67
2018-05-15T04:53:31.072Z,59.58
2018-05-15T04:54:28.808Z,59.38
2018-05-15T04:55:28.818Z,59.67
2018-05-15T04:56:28.825Z,59.77
2018-05-15T04:57:28.730Z,59.58
2018-05-15T04:58:28.747Z,59.48
2018-05-15T04:59:28.749Z,59.38
2018-05-15T05:00:28.757Z,59.67
2018-05-15T05:01:28.769Z,59.48
2018-05-15T05:02:28.752Z,59.58
2018-05-15T05:03:28.768Z,58.81
2018-05-15T05:04:28.809Z,59.09
2018-05-15T05:05:29.068Z,59.00
2018-05-15T05:06:28.246Z,58.62
2018-05-15T05:07:28.813Z,58.71
2018-05-15T05:08:28.830Z,58.33
2018-05-15T05:09:28.857Z,59.00
2018-05-15T05:10:29.210Z,59.19
2018-05-15T05:11:28.806Z,58.62
2018-05-15T05:12:28.753Z,58.23
2018-05-15T05:13:28.811Z,57.97
2018-05-15T05:14:29.026Z,58.23
2018-05-15T05:15:28.825Z,58.23
2018-05-15T05:16:29.068Z,58.42
2018-05-15T05:17:28.315Z,58.04
2018-05-15T05:18:29.125Z,58.26
2018-05-15T05:19:28.575Z,57.65
2018-05-15T05:20:29.206Z,57.65
2018-05-15T05:21:28.839Z,57.75
2018-05-15T05:22:28.810Z,57.85
2018-05-15T05:23:28.828Z,57.65
2018-05-15T05:24:28.834Z,58.23
2018-05-15T05:25:29.071Z,58.14
2018-05-15T05:26:29.071Z,57.65
2018-05-15T05:27:28.267Z,58.14
2018-05-15T05:28:28.828Z,57.78
2018-05-15T05:29:29.081Z,57.85
2018-05-15T05:30:28.753Z,57.97
2018-05-15T05:31:29.385Z,57.37
2018-05-15T05:32:28.571Z,57.88
2018-05-15T05:33:28.786Z,57.68
2018-05-15T05:34:29.072Z,57.40
2018-05-15T05:35:29.075Z,56.92
2018-05-15T05:36:29.365Z,57.01
2018-05-15T05:37:29.146Z,56.92
2018-05-15T05:38:28.772Z,57.30
2018-05-15T05:39:28.794Z,56.73
2018-05-15T05:40:29.082Z,56.92
2018-05-15T05:41:28.814Z,56.63
2018-05-15T05:42:28.825Z,56.53
2018-05-15T05:43:28.822Z,56.63
2018-05-15T05:44:28.811Z,56.73
2018-05-15T05:45:28.800Z,56.53
2018-05-15T05:46:29.188Z,56.44
2018-05-15T05:47:29.084Z,56.34
2018-05-15T05:48:29.397Z,56.05
2018-05-15T05:49:27.393Z,56.05
2018-05-15T05:50:29.135Z,55.86
2018-05-15T05:51:28.752Z,56.53
2018-05-15T05:52:28.810Z,56.05
2018-05-15T05:53:28.785Z,56.18
2018-05-15T05:54:29.079Z,55.99
2018-05-15T05:55:29.072Z,56.08
2018-05-15T05:56:29.372Z,56.05
2018-05-15T05:57:29.080Z,56.27
2018-05-15T05:58:28.355Z,56.27
2018-05-15T05:59:29.083Z,56.18
2018-05-15T06:00:28.818Z,56.76
2018-05-15T06:01:29.063Z,55.99
2018-05-15T06:02:28.591Z,56.53
2018-05-15T06:03:29.075Z,56.05
2018-05-15T06:04:28.823Z,56.46
2018-05-15T06:05:29.085Z,55.79
2018-05-15T06:06:29.031Z,56.08
2018-05-15T06:07:28.843Z,56.37
2018-05-15T06:08:28.807Z,55.89
2018-05-15T06:09:29.084Z,56.08
2018-05-15T06:10:28.796Z,56.08
2018-05-15T06:11:29.086Z,55.99
2018-05-15T06:12:28.879Z,55.89
2018-05-15T06:13:29.440Z,55.79
2018-05-15T06:14:29.499Z,55.89
2018-05-15T06:15:29.086Z,56.08
2018-05-15T06:16:29.087Z,55.99
2018-05-15T06:17:29.563Z,56.18
2018-05-15T06:18:29.091Z,55.99
2018-05-15T06:19:28.787Z,55.32
2018-05-15T06:21:28.792Z,55.99
2018-05-15T06:22:28.822Z,55.79
2018-05-15T06:23:29.094Z,56.18
2018-05-15T06:24:29.081Z,57.23
2018-05-15T06:25:29.109Z,57.23
2018-05-15T06:26:29.377Z,56.95
2018-05-15T06:27:29.652Z,56.95
2018-05-15T06:28:28.830Z,57.81
2018-05-15T06:29:29.125Z,57.33
2018-05-15T06:30:29.072Z,57.23
2018-05-15T06:31:29.088Z,57.04
2018-05-15T06:32:28.410Z,57.23
2018-05-15T06:33:28.819Z,56.95
2018-05-15T06:34:28.359Z,57.33
2018-05-15T06:35:29.095Z,57.43
2018-05-15T06:36:29.103Z,56.95
2018-05-15T06:37:28.589Z,56.95
2018-05-15T06:38:29.667Z,57.33
2018-05-15T06:39:29.080Z,57.14
2018-05-15T06:40:36.096Z,56.95
2018-05-15T06:41:29.083Z,56.56
2018-05-15T06:42:28.885Z,57.04
2018-05-15T06:43:28.815Z,56.66
2018-05-15T06:44:29.120Z,56.08
2018-05-15T06:45:28.834Z,56.37
2018-05-15T06:46:30.648Z,56.46
2018-05-15T06:47:28.882Z,55.99
2018-05-15T06:48:28.553Z,56.01
2018-05-15T06:49:28.889Z,56.49
2018-05-15T06:50:28.845Z,56.59
2018-05-15T06:51:29.555Z,55.24
2018-05-15T06:52:28.562Z,54.67
2018-05-15T06:53:29.157Z,54.00
2018-05-15T06:54:28.908Z,53.61
2018-05-15T06:55:28.883Z,54.47
2018-05-15T06:56:29.439Z,54.86
2018-05-15T06:57:29.413Z,53.90
2018-05-15T06:58:29.081Z,54.19
2018-05-15T06:59:28.871Z,53.70
2018-05-15T07:00:28.865Z,53.64
2018-05-15T07:01:29.168Z,53.83
2018-05-15T07:02:29.151Z,53.83
2018-05-15T07:03:29.873Z,54.00
2018-05-15T07:04:28.864Z,53.90
2018-05-15T07:05:29.077Z,53.80
2018-05-15T07:06:29.139Z,53.61
2018-05-15T07:07:29.445Z,53.52
2018-05-15T07:08:29.107Z,53.70
2018-05-15T07:09:29.154Z,53.70
2018-05-15T07:10:29.165Z,54.47
2018-05-15T07:11:29.091Z,54.77
2018-05-15T07:12:29.058Z,54.69
2018-05-15T07:13:28.885Z,54.50
2018-05-15T07:14:29.085Z,54.89
2018-05-15T07:15:28.859Z,54.99
2018-05-15T07:16:28.517Z,55.66
2018-05-15T07:17:29.156Z,55.18
2018-05-15T07:18:29.178Z,55.56
2018-05-15T07:19:29.185Z,55.18
2018-05-15T07:20:29.392Z,54.89
2018-05-15T07:21:29.113Z,54.50
2018-05-15T07:22:28.964Z,54.60
2018-05-15T07:23:29.361Z,54.99
2018-05-15T07:24:28.998Z,54.34
2018-05-15T07:25:29.115Z,54.72
2018-05-15T07:26:29.262Z,53.86
2018-05-15T07:27:29.534Z,54.05
2018-05-15T07:28:28.891Z,53.96
2018-05-15T07:29:29.427Z,53.76
2018-05-15T07:30:29.014Z,54.34
2018-05-15T07:31:29.422Z,54.43
2018-05-15T07:32:29.134Z,54.63
2018-05-15T07:33:28.499Z,54.72
2018-05-15T07:34:28.871Z,54.63
2018-05-15T07:35:28.849Z,54.14
2018-05-15T07:36:28.905Z,53.57
2018-05-15T07:37:30.653Z,53.96
2018-05-15T07:38:29.137Z,53.02
2018-05-15T07:39:28.929Z,53.31
2018-05-15T07:40:29.160Z,53.11
2018-05-15T07:41:29.421Z,52.92
2018-05-15T07:42:29.127Z,52.54
2018-05-15T07:43:29.113Z,53.11
2018-05-15T07:44:28.970Z,52.83
2018-05-15T07:45:29.525Z,52.92
2018-05-15T07:46:31.629Z,52.83
2018-05-15T07:47:28.977Z,53.21
2018-05-15T07:48:29.566Z,53.11
2018-05-15T07:49:29.080Z,52.73
2018-05-15T07:50:29.091Z,51.86
2018-05-15T07:51:29.103Z,50.99
2018-05-15T07:52:29.186Z,51.19
2018-05-15T07:53:29.556Z,51.09
2018-05-15T07:54:35.357Z,50.93
2018-05-15T07:55:34.891Z,50.45
2018-05-15T07:56:29.572Z,50.45
2018-05-15T07:57:29.130Z,49.68
2018-05-15T07:58:28.933Z,49.96
2018-05-15T07:59:29.651Z,49.96
2018-05-15T08:00:29.430Z,49.48
2018-05-15T08:01:29.432Z,49.87
2018-05-15T08:02:29.746Z,49.87
2018-05-15T08:03:29.133Z,49.87
2018-05-15T08:04:29.223Z,49.68
2018-05-15T08:05:28.991Z,49.58
2018-05-15T08:06:28.847Z,49.68
2018-05-15T08:07:28.865Z,49.87
2018-05-15T08:08:29.413Z,49.96
2018-05-15T08:09:29.456Z,49.89
2018-05-15T08:10:29.376Z,49.70
2018-05-15T08:11:28.851Z,48.52
2018-05-15T08:12:28.870Z,48.52
2018-05-15T08:13:29.130Z,48.71
2018-05-15T08:14:28.878Z,48.90
2018-05-15T08:15:29.614Z,49.77
2018-05-15T08:16:29.453Z,48.71
2018-05-15T08:17:29.316Z,49.10
2018-05-15T08:18:28.994Z,50.09
2018-05-15T08:19:29.438Z,49.89
2018-05-15T08:20:29.495Z,49.99
2018-05-15T08:21:28.964Z,49.70
2018-05-15T08:22:29.508Z,49.70
2018-05-15T08:23:28.892Z,50.09
2018-05-15T08:24:28.996Z,48.93
2018-05-15T08:25:29.052Z,49.22
2018-05-15T08:26:29.190Z,49.89
2018-05-15T08:27:29.163Z,49.79
2018-05-15T08:28:29.746Z,49.70
2018-05-15T08:29:29.091Z,47.67
2018-05-15T08:30:28.890Z,46.14
2018-05-15T08:31:29.096Z,46.33
2018-05-15T08:32:29.534Z,47.87
2018-05-15T08:33:30.972Z,47.70
2018-05-15T08:34:29.620Z,47.39
2018-05-15T08:35:29.523Z,48.08
2018-05-15T08:36:29.517Z,47.70
2018-05-15T08:37:29.703Z,46.73
2018-05-15T08:38:28.926Z,46.35
2018-05-15T08:39:29.141Z,46.45
2018-05-15T08:40:29.762Z,46.15
2018-05-15T08:41:29.262Z,46.83
2018-05-15T08:42:30.012Z,46.45
2018-05-15T08:43:29.039Z,46.06
2018-05-15T08:44:29.248Z,45.00
2018-05-15T08:45:29.507Z,45.20
2018-05-15T08:46:29.594Z,45.41
2018-05-15T08:47:29.086Z,44.35
2018-05-15T08:48:29.077Z,44.23
2018-05-15T08:49:28.958Z,43.77
2018-05-15T08:50:29.011Z,43.77
2018-05-15T08:51:29.783Z,43.77
2018-05-15T08:52:29.542Z,43.38
2018-05-15T08:53:29.222Z,42.90
2018-05-15T08:54:28.997Z,43.00
2018-05-15T08:55:29.693Z,42.90
2018-05-15T08:56:29.670Z,43.38
2018-05-15T08:57:29.447Z,43.38
2018-05-15T08:58:29.576Z,43.87
2018-05-15T08:59:28.724Z,44.35
2018-05-15T09:00:29.155Z,45.51
2018-05-15T09:01:29.163Z,44.93
2018-05-15T09:02:29.659Z,43.67
2018-05-15T09:03:29.459Z,42.61
2018-05-15T09:04:29.473Z,42.61
2018-05-15T09:05:29.666Z,42.90
2018-05-15T09:06:29.427Z,43.29
2018-05-15T09:07:29.157Z,43.19
2018-05-15T09:08:29.441Z,42.42
2018-05-15T09:09:29.183Z,42.52
2018-05-15T09:10:29.668Z,42.44
2018-05-15T09:11:28.960Z,42.63
2018-05-15T09:12:29.459Z,41.96
2018-05-15T09:13:29.148Z,41.67
2018-05-15T09:14:29.617Z,41.38
2018-05-15T09:15:29.679Z,41.38
2018-05-15T09:16:28.992Z,41.77
2018-05-15T09:17:29.058Z,40.80
2018-05-15T09:18:29.058Z,40.03
2018-05-15T09:19:29.746Z,40.42
2018-05-15T09:20:29.192Z,39.74
2018-05-15T09:21:29.696Z,39.26
2018-05-15T09:22:28.965Z,38.97
2018-05-15T09:23:29.529Z,39.06
2018-05-15T09:25:35.659Z,39.36
2018-05-15T09:26:29.197Z,39.66
2018-05-15T09:27:29.203Z,39.36
2018-05-15T09:28:29.357Z,38.97
2018-05-15T09:29:29.229Z,39.18
2018-05-15T09:30:29.227Z,38.89
2018-05-15T09:31:29.461Z,38.12
2018-05-15T09:32:29.942Z,38.31
2018-05-15T09:33:29.975Z,38.12
2018-05-15T09:34:30.019Z,37.83
2018-05-15T09:35:29.712Z,38.12
2018-05-15T09:36:29.510Z,38.21
2018-05-15T09:37:30.101Z,37.93
2018-05-15T09:38:29.637Z,38.21
2018-05-15T09:39:29.521Z,38.31
2018-05-15T09:40:29.781Z,38.21
2018-05-15T09:41:29.705Z,38.60
2018-05-15T09:42:29.617Z,38.51
2018-05-15T09:43:28.784Z,38.89
2018-05-15T09:44:29.968Z,38.99
2018-05-15T09:45:29.715Z,39.09
2018-05-15T09:46:29.421Z,37.25
2018-05-15T09:47:29.675Z,36.48
2018-05-15T09:48:29.217Z,36.57
2018-05-15T09:49:29.465Z,36.96
2018-05-15T09:50:29.517Z,37.73
2018-05-15T09:51:29.689Z,38.12
2018-05-15T09:52:29.705Z,38.21
2018-05-15T09:53:29.672Z,38.51
2018-05-15T09:54:30.152Z,38.51
2018-05-15T09:55:31.279Z,38.21
2018-05-15T09:56:30.091Z,37.06
2018-05-15T09:57:30.813Z,37.25
2018-05-15T09:58:29.443Z,37.75
2018-05-15T09:59:30.010Z,38.23
2018-05-15T10:00:29.446Z,38.43
2018-05-15T10:01:29.464Z,37.08
2018-05-15T10:02:29.430Z,37.56
2018-05-15T10:03:29.724Z,36.71
2018-05-15T10:04:30.081Z,36.79
2018-05-15T10:05:29.792Z,37.00
2018-05-15T10:06:30.187Z,36.90
2018-05-15T10:07:29.467Z,37.27
2018-05-15T10:08:29.986Z,37.65
2018-05-15T10:09:29.632Z,38.04
2018-05-15T10:10:29.663Z,37.77
2018-05-15T10:11:29.634Z,36.90
2018-05-15T10:12:29.713Z,36.90
2018-05-15T10:13:29.587Z,36.13
2018-05-15T10:14:29.995Z,36.13
2018-05-15T10:15:30.184Z,35.94
2018-05-15T10:16:29.963Z,36.13
2018-05-15T10:17:30.036Z,36.13
2018-05-15T10:18:29.639Z,35.74
2018-05-15T10:19:29.992Z,35.94
2018-05-15T10:20:29.732Z,36.90
2018-05-15T10:21:29.521Z,37.00
2018-05-15T10:22:29.691Z,36.80
2018-05-15T10:23:29.694Z,37.48
2018-05-15T10:24:32.210Z,37.19
2018-05-15T10:25:30.047Z,36.92
2018-05-15T10:26:29.986Z,35.64
2018-05-15T10:27:29.969Z,35.57
2018-05-15T10:28:29.524Z,36.05
2018-05-15T10:29:29.895Z,36.15
2018-05-15T10:30:29.687Z,35.08
2018-05-15T10:31:29.772Z,34.78
2018-05-15T10:32:32.206Z,34.79
2018-05-15T10:33:29.628Z,34.89
2018-05-15T10:34:29.724Z,34.79
2018-05-15T10:35:30.023Z,34.99
2018-05-15T10:36:29.749Z,34.99
2018-05-15T10:37:30.022Z,34.70
2018-05-15T10:38:31.238Z,34.12
2018-05-15T10:39:29.469Z,33.54
2018-05-15T10:40:31.234Z,33.92
2018-05-15T10:41:29.434Z,33.92
2018-05-15T10:42:28.738Z,33.94
2018-05-15T10:43:35.506Z,34.23
2018-05-15T10:44:29.474Z,34.71
2018-05-15T10:45:29.428Z,34.81
2018-05-15T10:46:29.909Z,34.44
2018-05-15T10:47:29.737Z,33.67
2018-05-15T10:48:29.701Z,33.57
2018-05-15T10:49:29.971Z,33.28
2018-05-15T10:50:29.515Z,33.26
2018-05-15T10:51:29.600Z,33.76
2018-05-15T10:53:30.140Z,32.79
2018-05-15T10:54:30.101Z,32.78
2018-05-15T10:55:29.679Z,32.87
2018-05-15T10:56:30.297Z,33.18
2018-05-15T10:57:29.719Z,33.28
2018-05-15T10:58:30.106Z,33.67
2018-05-15T10:59:29.754Z,34.34
2018-05-15T11:00:29.749Z,33.95
2018-05-15T11:01:30.337Z,33.28
2018-05-15T11:02:29.513Z,32.89
2018-05-15T11:03:30.215Z,32.60
2018-05-15T11:04:29.819Z,32.81
2018-05-15T11:05:29.751Z,33.01
2018-05-15T11:06:29.444Z,31.65
2018-05-15T11:07:30.133Z,30.98
2018-05-15T11:08:30.170Z,31.83
2018-05-15T11:09:32.031Z,32.42
2018-05-15T11:10:29.958Z,32.21
2018-05-15T11:11:29.530Z,32.41
2018-05-15T11:12:29.795Z,32.41
2018-05-15T11:13:30.195Z,32.52
2018-05-15T11:14:29.216Z,32.91
2018-05-15T11:15:30.098Z,32.62
2018-05-15T11:16:29.301Z,32.92
2018-05-15T11:17:29.467Z,32.44
2018-05-15T11:18:29.724Z,31.76
2018-05-15T11:19:29.280Z,30.51
2018-05-15T11:20:31.749Z,29.83
2018-05-15T11:21:30.116Z,29.81
2018-05-15T11:22:30.213Z,30.51
2018-05-15T11:23:30.218Z,30.98
2018-05-15T11:24:29.832Z,31.36
2018-05-15T11:25:30.139Z,31.56
2018-05-15T11:26:30.225Z,31.56
2018-05-15T11:27:29.737Z,31.74
2018-05-15T11:28:30.257Z,31.83
2018-05-15T11:29:29.576Z,32.21
2018-05-15T11:30:29.792Z,32.71
2018-05-15T11:31:29.766Z,32.70
2018-05-15T11:32:29.816Z,32.91
2018-05-15T11:33:30.066Z,32.92
2018-05-15T11:34:30.252Z,32.82
2018-05-15T11:35:29.293Z,32.52
2018-05-15T11:36:30.250Z,32.81
2018-05-15T11:37:29.791Z,32.62
2018-05-15T11:38:30.143Z,32.52
2018-05-15T11:39:30.186Z,33.12
2018-05-15T11:40:30.351Z,32.73
2018-05-15T11:41:30.317Z,32.62
2018-05-15T11:42:30.327Z,32.81
2018-05-15T11:43:30.622Z,32.71
2018-05-15T11:44:30.181Z,32.54
2018-05-15T11:45:30.438Z,32.44
2018-05-15T11:46:29.725Z,32.34
2018-05-15T11:47:30.595Z,32.34
2018-05-15T11:48:30.047Z,32.26
2018-05-15T11:49:31.511Z,32.26
2018-05-15T11:50:30.883Z,31.68
2018-05-15T11:51:31.569Z,31.49
2018-05-15T11:52:31.546Z,30.39
2018-05-15T11:53:30.271Z,30.68
2018-05-15T11:54:30.687Z,30.60
2018-05-15T11:55:35.292Z,29.83
2018-05-15T11:56:30.098Z,29.26
2018-05-15T11:57:29.790Z,29.46
2018-05-15T11:58:30.527Z,29.26
2018-05-15T11:59:30.195Z,29.84
2018-05-15T12:00:30.198Z,31.12
2018-05-15T12:01:30.857Z,30.44
2018-05-15T12:02:30.643Z,29.85
2018-05-15T12:03:30.557Z,30.63
2018-05-15T12:04:30.541Z,30.82
2018-05-15T12:05:30.542Z,30.34
2018-05-15T12:06:30.770Z,29.47
2018-05-15T12:07:30.238Z,29.57
2018-05-15T12:08:30.596Z,29.68
2018-05-15T12:09:30.199Z,29.66
2018-05-15T12:10:30.729Z,29.85
2018-05-15T12:11:29.653Z,29.37
2018-05-15T12:12:29.948Z,29.38
2018-05-15T12:13:30.309Z,28.40
2018-05-15T12:14:30.753Z,29.08
2018-05-15T12:15:30.298Z,28.61
2018-05-15T12:16:30.278Z,29.30
2018-05-15T12:17:30.035Z,29.30
2018-05-15T12:18:30.029Z,29.60
2018-05-15T12:19:29.994Z,29.40
2018-05-15T12:20:30.246Z,28.63
2018-05-15T12:21:29.752Z,28.80
2018-05-15T12:22:30.779Z,28.43
2018-05-15T12:23:30.301Z,28.93
2018-05-15T12:24:30.731Z,29.30
2018-05-15T12:25:29.809Z,29.69
2018-05-15T12:26:30.296Z,28.63
2018-05-15T12:27:30.783Z,27.96
2018-05-15T12:28:30.527Z,27.39
2018-05-15T12:29:30.295Z,27.29
2018-05-15T12:30:30.298Z,28.74
2018-05-15T12:31:30.247Z,27.59
2018-05-15T12:32:30.204Z,27.01
2018-05-15T12:33:30.508Z,27.40
2018-05-15T12:34:30.276Z,27.42
2018-05-15T12:35:31.096Z,26.64
2018-05-15T12:36:30.265Z,25.76
2018-05-15T12:37:30.570Z,25.76
2018-05-15T12:38:30.205Z,23.91
2018-05-15T12:39:30.558Z,24.10
2018-05-15T12:40:30.765Z,24.40
2018-05-15T12:41:32.089Z,25.27
2018-05-15T12:42:32.574Z,25.09
2018-05-15T12:43:30.715Z,23.85
2018-05-15T12:44:30.688Z,23.74
2018-05-15T12:45:30.578Z,24.07
2018-05-15T12:46:31.407Z,22.89
2018-05-15T12:47:30.540Z,22.11
2018-05-15T12:48:30.792Z,21.92
2018-05-15T12:49:31.102Z,22.31
2018-05-15T12:50:30.666Z,21.56
2018-05-15T12:51:30.633Z,20.72
2018-05-15T12:52:31.084Z,20.24
2018-05-15T12:53:30.791Z,19.67
2018-05-15T12:54:30.729Z,19.67
2018-05-15T12:55:30.812Z,19.59